Centralia, Washington
Current Conditions -  °F | °C
As of 12:55 AM on Saturday 29 Nov 2014 (Local Time) from KCLS Reporting Station
Overcast Overcast  
Wind Chill: 34°   Ceiling: 3800
Heat Index: 37°   Visibility: 10mi
Dew Point: 37°   Wind: 5mph
Humidity: 100%   Direction: 180°S
Pressure: 29.59"   Gusts: NA
Location:  46.73°N, 122.95°W
Report Text: KCLS 290855Z AUTO 18004KT 10SM FEW025 BKN038 OVC070 03/03 A2959 RMK AO2
Loading
Personal Weather Stations






























Interactive Weather Map New forecast layout! Learn more

10-Day Weather Forecast

Advertisements
Track Severe Weather on mobile